sensor_id;sensor_type;location;lat;lon;timestamp;pressure;altitude;pressure_sealevel;temperature;humidity
69153;BME280;56261;51.580;4.578;2023-06-01T00:02:23;102500.31;;;11.84;100.00
69153;BME280;56261;51.580;4.578;2023-06-01T00:04:49;102491.03;;;11.79;100.00
69153;BME280;56261;51.580;4.578;2023-06-01T00:07:16;102495.97;;;11.83;100.00
69153;BME280;56261;51.580;4.578;2023-06-01T00:09:41;102486.47;;;11.70;100.00
69153;BME280;56261;51.580;4.578;2023-06-01T00:12:07;102487.19;;;11.72;100.00
69153;BME280;56261;51.580;4.578;2023-06-01T00:14:33;102489.16;;;11.70;100.00
69153;BME280;56261;51.580;4.578;2023-06-01T00:16:58;102485.81;;;11.68;100.00
69153;BME280;56261;51.580;4.578;2023-06-01T00:19:24;102482.13;;;11.59;100.00
69153;BME280;56261;51.580;4.578;2023-06-01T00:21:52;102490.91;;;11.50;100.00
69153;BME280;56261;51.580;4.578;2023-06-01T00:24:19;102488.81;;;11.43;100.00
69153;BME280;56261;51.580;4.578;2023-06-01T00:26:46;102481.22;;;11.49;100.00
69153;BME280;56261;51.580;4.578;2023-06-01T00:29:11;102481.34;;;11.47;100.00
69153;BME280;56261;51.580;4.578;2023-06-01T00:31:37;102484.00;;;11.37;100.00
69153;BME280;56261;51.580;4.578;2023-06-01T00:34:03;102474.94;;;11.29;100.00
69153;BME280;56261;51.580;4.578;2023-06-01T00:36:28;102485.81;;;11.37;100.00
69153;BME280;56261;51.580;4.578;2023-06-01T00:38:54;102469.03;;;11.25;100.00
69153;BME280;56261;51.580;4.578;2023-06-01T00:41:26;102476.66;;;11.30;100.00
69153;BME280;56261;51.580;4.578;2023-06-01T00:43:52;102478.88;;;11.25;100.00
69153;BME280;56261;51.580;4.578;2023-06-01T00:46:17;102482.38;;;11.25;100.00
69153;BME280;56261;51.580;4.578;2023-06-01T00:48:43;102481.09;;;11.19;100.00
69153;BME280;56261;51.580;4.578;2023-06-01T00:51:09;102466.19;;;11.17;100.00
69153;BME280;56261;51.580;4.578;2023-06-01T00:53:34;102479.78;;;11.14;100.00
69153;BME280;56261;51.580;4.578;2023-06-01T00:56:00;102475.13;;;11.06;100.00
69153;BME280;56261;51.580;4.578;2023-06-01T00:58:26;102473.75;;;11.12;100.00
69153;BME280;56261;51.580;4.578;2023-06-01T01:00:51;102472.75;;;11.03;100.00
69153;BME280;56261;51.580;4.578;2023-06-01T01:03:19;102475.41;;;11.03;100.00
69153;BME280;56261;51.580;4.578;2023-06-01T01:05:47;102480.56;;;10.95;100.00
69153;BME280;56261;51.580;4.578;2023-06-01T01:08:33;102487.88;;;11.02;100.00
69153;BME280;56261;51.580;4.578;2023-06-01T01:11:18;102490.75;;;11.11;100.00
69153;BME280;56261;51.580;4.578;2023-06-01T01:13:58;102483.34;;;11.14;100.00
69153;BME280;56261;51.580;4.578;2023-06-01T01:16:30;102496.28;;;10.98;100.00
69153;BME280;56261;51.580;4.578;2023-06-01T01:19:25;102494.09;;;11.03;100.00
69153;BME280;56261;51.580;4.578;2023-06-01T01:25:00;102496.88;;;11.01;100.00
69153;BME280;56261;51.580;4.578;2023-06-01T01:30:21;102490.31;;;11.06;100.00
69153;BME280;56261;51.580;4.578;2023-06-01T01:32:49;102484.56;;;10.89;100.00
69153;BME280;56261;51.580;4.578;2023-06-01T01:35:16;102485.56;;;10.88;100.00
69153;BME280;56261;51.580;4.578;2023-06-01T01:37:55;102490.72;;;11.01;100.00
69153;BME280;56261;51.580;4.578;2023-06-01T01:40:21;102491.28;;;11.05;100.00
69153;BME280;56261;51.580;4.578;2023-06-01T01:42:46;102490.84;;;10.99;100.00
69153;BME280;56261;51.580;4.578;2023-06-01T01:45:14;102492.59;;;10.89;100.00
69153;BME280;56261;51.580;4.578;2023-06-01T01:48:20;102484.47;;;10.91;100.00
69153;BME280;56261;51.580;4.578;2023-06-01T01:50:53;102478.84;;;10.94;100.00
69153;BME280;56261;51.580;4.578;2023-06-01T01:53:22;102487.03;;;11.02;100.00
69153;BME280;56261;51.580;4.578;2023-06-01T01:55:49;102488.94;;;10.90;100.00
69153;BME280;56261;51.580;4.578;2023-06-01T01:58:16;102492.91;;;10.96;100.00
69153;BME280;56261;51.580;4.578;2023-06-01T02:00:43;102492.78;;;10.97;100.00
69153;BME280;56261;51.580;4.578;2023-06-01T02:03:16;102495.72;;;10.94;100.00
69153;BME280;56261;51.580;4.578;2023-06-01T02:05:42;102494.72;;;10.95;100.00
69153;BME280;56261;51.580;4.578;2023-06-01T02:08:08;102490.38;;;10.94;100.00
69153;BME280;56261;51.580;4.578;2023-06-01T02:10:33;102482.56;;;10.82;100.00
69153;BME280;56261;51.580;4.578;2023-06-01T02:12:59;102480.81;;;10.71;100.00
69153;BME280;56261;51.580;4.578;2023-06-01T02:15:24;102487.00;;;10.71;100.00
69153;BME280;56261;51.580;4.578;2023-06-01T02:17:50;102485.97;;;10.84;100.00
69153;BME280;56261;51.580;4.578;2023-06-01T02:20:17;102483.09;;;10.75;100.00
69153;BME280;56261;51.580;4.578;2023-06-01T02:22:42;102476.13;;;10.63;100.00
69153;BME280;56261;51.580;4.578;2023-06-01T02:25:08;102474.94;;;10.56;100.00
69153;BME280;56261;51.580;4.578;2023-06-01T02:27:34;102475.53;;;10.59;100.00
69153;BME280;56261;51.580;4.578;2023-06-01T02:30:00;102472.38;;;10.66;100.00
69153;BME280;56261;51.580;4.578;2023-06-01T02:32:25;102467.81;;;10.56;100.00
69153;BME280;56261;51.580;4.578;2023-06-01T02:34:51;102466.34;;;10.73;100.00
69153;BME280;56261;51.580;4.578;2023-06-01T02:37:17;102462.91;;;10.62;100.00
69153;BME280;56261;51.580;4.578;2023-06-01T02:39:42;102471.38;;;10.67;100.00
69153;BME280;56261;51.580;4.578;2023-06-01T02:42:08;102466.09;;;10.55;100.00
69153;BME280;56261;51.580;4.578;2023-06-01T02:44:33;102465.59;;;10.62;100.00
69153;BME280;56261;51.580;4.578;2023-06-01T02:46:59;102473.91;;;10.68;100.00
69153;BME280;56261;51.580;4.578;2023-06-01T02:49:24;102473.00;;;10.58;100.00
69153;BME280;56261;51.580;4.578;2023-06-01T02:51:49;102471.53;;;10.65;100.00
69153;BME280;56261;51.580;4.578;2023-06-01T02:54:15;102474.63;;;10.49;100.00
69153;BME280;56261;51.580;4.578;2023-06-01T02:56:40;102469.31;;;10.49;100.00
69153;BME280;56261;51.580;4.578;2023-06-01T02:59:05;102470.66;;;10.44;100.00
69153;BME280;56261;51.580;4.578;2023-06-01T03:01:31;102473.78;;;10.49;100.00
69153;BME280;56261;51.580;4.578;2023-06-01T03:04:01;102478.72;;;10.53;100.00
69153;BME280;56261;51.580;4.578;2023-06-01T03:06:29;102472.41;;;10.54;100.00
69153;BME280;56261;51.580;4.578;2023-06-01T03:08:59;102478.25;;;10.48;100.00
69153;BME280;56261;51.580;4.578;2023-06-01T03:11:25;102475.88;;;10.66;100.00
69153;BME280;56261;51.580;4.578;2023-06-01T03:13:51;102465.53;;;10.52;100.00
69153;BME280;56261;51.580;4.578;2023-06-01T03:16:17;102477.44;;;10.48;100.00
69153;BME280;56261;51.580;4.578;2023-06-01T03:18:42;102473.53;;;10.52;100.00
69153;BME280;56261;51.580;4.578;2023-06-01T03:21:07;102473.97;;;10.57;100.00
69153;BME280;56261;51.580;4.578;2023-06-01T03:23:33;102470.19;;;10.59;100.00
69153;BME280;56261;51.580;4.578;2023-06-01T03:25:58;102480.66;;;10.51;100.00
69153;BME280;56261;51.580;4.578;2023-06-01T03:28:24;102473.03;;;10.47;100.00
69153;BME280;56261;51.580;4.578;2023-06-01T03:30:49;102479.81;;;10.51;100.00
69153;BME280;56261;51.580;4.578;2023-06-01T03:33:16;102481.06;;;10.47;100.00
69153;BME280;56261;51.580;4.578;2023-06-01T03:35:41;102486.88;;;10.52;100.00
69153;BME280;56261;51.580;4.578;2023-06-01T03:38:09;102478.25;;;10.48;100.00
69153;BME280;56261;51.580;4.578;2023-06-01T03:40:34;102476.59;;;10.47;100.00
69153;BME280;56261;51.580;4.578;2023-06-01T03:43:00;102486.81;;;10.63;100.00
69153;BME280;56261;51.580;4.578;2023-06-01T03:45:26;102473.78;;;10.49;100.00
69153;BME280;56261;51.580;4.578;2023-06-01T03:47:51;102489.97;;;10.36;100.00
69153;BME280;56261;51.580;4.578;2023-06-01T03:50:16;102477.09;;;10.41;100.00
69153;BME280;56261;51.580;4.578;2023-06-01T03:52:42;102479.19;;;10.58;100.00
69153;BME280;56261;51.580;4.578;2023-06-01T03:55:07;102476.25;;;10.62;100.00
69153;BME280;56261;51.580;4.578;2023-06-01T03:57:36;102474.91;;;10.67;100.00
69153;BME280;56261;51.580;4.578;2023-06-01T04:00:06;102472.22;;;10.46;100.00
69153;BME280;56261;51.580;4.578;2023-06-01T04:02:47;102477.44;;;10.48;100.00
69153;BME280;56261;51.580;4.578;2023-06-01T04:05:14;102470.59;;;10.23;100.00
69153;BME280;56261;51.580;4.578;2023-06-01T04:07:44;102481.19;;;10.45;100.00
69153;BME280;56261;51.580;4.578;2023-06-01T04:10:14;102486.00;;;10.51;100.00
69153;BME280;56261;51.580;4.578;2023-06-01T04:12:43;102493.16;;;10.30;100.00
69153;BME280;56261;51.580;4.578;2023-06-01T04:15:10;102495.31;;;10.36;100.00
69153;BME280;56261;51.580;4.578;2023-06-01T04:17:39;102484.25;;;10.62;100.00
69153;BME280;56261;51.580;4.578;2023-06-01T04:20:07;102491.53;;;10.80;100.00
69153;BME280;56261;51.580;4.578;2023-06-01T04:22:37;102487.31;;;10.78;100.00
69153;BME280;56261;51.580;4.578;2023-06-01T04:25:06;102485.44;;;10.69;100.00
69153;BME280;56261;51.580;4.578;2023-06-01T04:27:36;102488.16;;;10.57;100.00
69153;BME280;56261;51.580;4.578;2023-06-01T04:30:05;102489.09;;;10.68;100.00
69153;BME280;56261;51.580;4.578;2023-06-01T04:32:34;102496.28;;;10.56;100.00
69153;BME280;56261;51.580;4.578;2023-06-01T04:35:01;102492.44;;;10.49;100.00
69153;BME280;56261;51.580;4.578;2023-06-01T04:37:33;102489.47;;;10.63;100.00
69153;BME280;56261;51.580;4.578;2023-06-01T04:40:03;102487.38;;;10.67;100.00
69153;BME280;56261;51.580;4.578;2023-06-01T04:42:33;102487.13;;;10.70;100.00
69153;BME280;56261;51.580;4.578;2023-06-01T04:45:00;102490.25;;;10.75;100.00
69153;BME280;56261;51.580;4.578;2023-06-01T04:47:26;102496.53;;;10.85;100.00
69153;BME280;56261;51.580;4.578;2023-06-01T04:49:52;102501.72;;;10.87;100.00
69153;BME280;56261;51.580;4.578;2023-06-01T04:52:18;102497.72;;;11.23;100.00
69153;BME280;56261;51.580;4.578;2023-06-01T04:54:44;102504.09;;;11.11;100.00
69153;BME280;56261;51.580;4.578;2023-06-01T04:57:11;102502.75;;;10.95;100.00
69153;BME280;56261;51.580;4.578;2023-06-01T04:59:40;102503.34;;;10.99;100.00
69153;BME280;56261;51.580;4.578;2023-06-01T05:02:06;102504.03;;;11.22;100.00
69153;BME280;56261;51.580;4.578;2023-06-01T05:04:31;102503.00;;;11.13;100.00
69153;BME280;56261;51.580;4.578;2023-06-01T05:06:57;102500.84;;;11.38;100.00
69153;BME280;56261;51.580;4.578;2023-06-01T05:09:22;102503.69;;;11.36;100.00
69153;BME280;56261;51.580;4.578;2023-06-01T05:11:48;102493.03;;;11.15;100.00
69153;BME280;56261;51.580;4.578;2023-06-01T05:14:13;102498.88;;;11.09;100.00
69153;BME280;56261;51.580;4.578;2023-06-01T05:16:38;102501.47;;;10.90;100.00
69153;BME280;56261;51.580;4.578;2023-06-01T05:19:04;102505.53;;;11.15;100.00
69153;BME280;56261;51.580;4.578;2023-06-01T05:21:29;102496.22;;;11.09;100.00
69153;BME280;56261;51.580;4.578;2023-06-01T05:23:57;102499.78;;;11.19;100.00
69153;BME280;56261;51.580;4.578;2023-06-01T05:26:22;102489.31;;;11.28;100.00
69153;BME280;56261;51.580;4.578;2023-06-01T05:28:47;102499.19;;;11.16;100.00
69153;BME280;56261;51.580;4.578;2023-06-01T05:31:13;102495.59;;;11.27;100.00
69153;BME280;56261;51.580;4.578;2023-06-01T05:33:38;102505.38;;;11.37;100.00
69153;BME280;56261;51.580;4.578;2023-06-01T05:36:04;102494.91;;;11.65;100.00
69153;BME280;56261;51.580;4.578;2023-06-01T05:38:29;102499.53;;;11.63;100.00
69153;BME280;56261;51.580;4.578;2023-06-01T05:40:55;102498.03;;;11.70;100.00
69153;BME280;56261;51.580;4.578;2023-06-01T05:43:20;102487.69;;;11.96;100.00
69153;BME280;56261;51.580;4.578;2023-06-01T05:45:46;102498.09;;;11.90;100.00
69153;BME280;56261;51.580;4.578;2023-06-01T05:48:13;102499.59;;;11.73;100.00
69153;BME280;56261;51.580;4.578;2023-06-01T05:50:40;102507.19;;;11.77;100.00
69153;BME280;56261;51.580;4.578;2023-06-01T05:53:07;102493.34;;;11.93;100.00
69153;BME280;56261;51.580;4.578;2023-06-01T05:55:32;102491.41;;;11.74;100.00
69153;BME280;56261;51.580;4.578;2023-06-01T05:57:58;102490.25;;;11.88;100.00
69153;BME280;56261;51.580;4.578;2023-06-01T06:00:23;102491.97;;;12.18;100.00
69153;BME280;56261;51.580;4.578;2023-06-01T06:02:49;102481.25;;;11.99;100.00
69153;BME280;56261;51.580;4.578;2023-06-01T06:05:15;102487.50;;;11.78;100.00
69153;BME280;56261;51.580;4.578;2023-06-01T06:07:41;102483.38;;;11.64;100.00
69153;BME280;56261;51.580;4.578;2023-06-01T06:10:06;102483.81;;;11.29;100.00
69153;BME280;56261;51.580;4.578;2023-06-01T06:12:32;102482.22;;;11.48;100.00
69153;BME280;56261;51.580;4.578;2023-06-01T06:14:57;102480.75;;;11.84;100.00
69153;BME280;56261;51.580;4.578;2023-06-01T06:17:23;102484.03;;;11.88;100.00
69153;BME280;56261;51.580;4.578;2023-06-01T06:19:48;102490.78;;;11.92;100.00
69153;BME280;56261;51.580;4.578;2023-06-01T06:22:15;102482.22;;;11.98;100.00
69153;BME280;56261;51.580;4.578;2023-06-01T06:24:40;102481.69;;;12.43;100.00
69153;BME280;56261;51.580;4.578;2023-06-01T06:27:08;102486.63;;;12.57;100.00
69153;BME280;56261;51.580;4.578;2023-06-01T06:29:33;102485.22;;;13.29;100.00
69153;BME280;56261;51.580;4.578;2023-06-01T06:31:58;102475.00;;;13.88;100.00
69153;BME280;56261;51.580;4.578;2023-06-01T06:34:24;102475.56;;;14.46;100.00
69153;BME280;56261;51.580;4.578;2023-06-01T06:36:51;102481.94;;;13.91;100.00
69153;BME280;56261;51.580;4.578;2023-06-01T06:39:18;102484.72;;;13.72;100.00
69153;BME280;56261;51.580;4.578;2023-06-01T06:41:43;102493.81;;;13.61;100.00
69153;BME280;56261;51.580;4.578;2023-06-01T06:44:09;102482.16;;;13.80;100.00
69153;BME280;56261;51.580;4.578;2023-06-01T06:46:34;102494.81;;;13.60;100.00
69153;BME280;56261;51.580;4.578;2023-06-01T06:49:00;102496.28;;;12.87;100.00
69153;BME280;56261;51.580;4.578;2023-06-01T06:51:26;102504.88;;;12.91;100.00
69153;BME280;56261;51.580;4.578;2023-06-01T06:53:51;102507.16;;;12.86;100.00
69153;BME280;56261;51.580;4.578;2023-06-01T06:56:17;102502.97;;;12.44;100.00
69153;BME280;56261;51.580;4.578;2023-06-01T06:58:43;102511.41;;;12.69;100.00
69153;BME280;56261;51.580;4.578;2023-06-01T07:01:09;102512.59;;;13.14;100.00
69153;BME280;56261;51.580;4.578;2023-06-01T07:03:35;102512.25;;;12.70;100.00
69153;BME280;56261;51.580;4.578;2023-06-01T07:06:01;102516.63;;;12.71;100.00
69153;BME280;56261;51.580;4.578;2023-06-01T07:08:26;102507.66;;;13.84;100.00
69153;BME280;56261;51.580;4.578;2023-06-01T07:10:53;102503.53;;;13.89;100.00
69153;BME280;56261;51.580;4.578;2023-06-01T07:13:18;102523.94;;;12.78;100.00
69153;BME280;56261;51.580;4.578;2023-06-01T07:15:44;102514.19;;;13.99;100.00
69153;BME280;56261;51.580;4.578;2023-06-01T07:18:10;102511.84;;;14.14;100.00
69153;BME280;56261;51.580;4.578;2023-06-01T07:20:35;102515.47;;;13.49;100.00
69153;BME280;56261;51.580;4.578;2023-06-01T07:23:01;102501.41;;;15.09;100.00
69153;BME280;56261;51.580;4.578;2023-06-01T07:25:26;102498.63;;;15.53;100.00
69153;BME280;56261;51.580;4.578;2023-06-01T07:27:51;102492.19;;;15.80;100.00
69153;BME280;56261;51.580;4.578;2023-06-01T07:30:17;102493.16;;;16.30;100.00
69153;BME280;56261;51.580;4.578;2023-06-01T07:32:43;102491.75;;;16.09;100.00
69153;BME280;56261;51.580;4.578;2023-06-01T07:35:09;102497.19;;;16.83;100.00
69153;BME280;56261;51.580;4.578;2023-06-01T07:37:35;102491.28;;;16.63;100.00
69153;BME280;56261;51.580;4.578;2023-06-01T07:40:00;102498.38;;;15.38;100.00
69153;BME280;56261;51.580;4.578;2023-06-01T07:42:25;102503.00;;;14.76;100.00
69153;BME280;56261;51.580;4.578;2023-06-01T07:44:51;102499.59;;;14.29;100.00
69153;BME280;56261;51.580;4.578;2023-06-01T07:47:16;102497.84;;;14.38;100.00
69153;BME280;56261;51.580;4.578;2023-06-01T07:49:42;102501.97;;;14.68;100.00
69153;BME280;56261;51.580;4.578;2023-06-01T07:52:08;102502.22;;;15.01;100.00
69153;BME280;56261;51.580;4.578;2023-06-01T07:54:34;102505.13;;;15.42;100.00
69153;BME280;56261;51.580;4.578;2023-06-01T07:57:03;102492.38;;;15.79;100.00
69153;BME280;56261;51.580;4.578;2023-06-01T07:59:30;102489.53;;;15.88;100.00
69153;BME280;56261;51.580;4.578;2023-06-01T08:01:56;102490.63;;;16.86;100.00
69153;BME280;56261;51.580;4.578;2023-06-01T08:04:22;102499.56;;;15.78;100.00
69153;BME280;56261;51.580;4.578;2023-06-01T08:06:49;102499.09;;;15.83;100.00
69153;BME280;56261;51.580;4.578;2023-06-01T08:09:17;102502.47;;;15.16;100.00
69153;BME280;56261;51.580;4.578;2023-06-01T08:11:42;102506.50;;;15.20;100.00
69153;BME280;56261;51.580;4.578;2023-06-01T08:14:07;102498.84;;;15.33;100.00
69153;BME280;56261;51.580;4.578;2023-06-01T08:16:34;102501.38;;;16.28;100.00
69153;BME280;56261;51.580;4.578;2023-06-01T08:19:00;102494.56;;;15.91;100.00
69153;BME280;56261;51.580;4.578;2023-06-01T08:21:26;102490.69;;;15.86;100.00
69153;BME280;56261;51.580;4.578;2023-06-01T08:23:52;102489.56;;;16.78;100.00
69153;BME280;56261;51.580;4.578;2023-06-01T08:26:20;102479.97;;;17.56;100.00
69153;BME280;56261;51.580;4.578;2023-06-01T08:28:46;102487.63;;;17.84;100.00
69153;BME280;56261;51.580;4.578;2023-06-01T08:31:23;102491.31;;;17.75;100.00
69153;BME280;56261;51.580;4.578;2023-06-01T08:33:49;102489.13;;;18.10;100.00
69153;BME280;56261;51.580;4.578;2023-06-01T08:36:16;102477.97;;;18.13;100.00
69153;BME280;56261;51.580;4.578;2023-06-01T08:38:42;102499.41;;;16.79;100.00
69153;BME280;56261;51.580;4.578;2023-06-01T08:41:17;102483.41;;;17.81;100.00
69153;BME280;56261;51.580;4.578;2023-06-01T08:43:43;102474.44;;;19.11;100.00
69153;BME280;56261;51.580;4.578;2023-06-01T08:46:09;102476.16;;;19.78;100.00
69153;BME280;56261;51.580;4.578;2023-06-01T08:48:37;102485.06;;;18.60;100.00
69153;BME280;56261;51.580;4.578;2023-06-01T08:51:03;102479.53;;;18.30;100.00
69153;BME280;56261;51.580;4.578;2023-06-01T08:53:30;102478.88;;;18.66;100.00
69153;BME280;56261;51.580;4.578;2023-06-01T08:55:56;102469.47;;;19.15;100.00
69153;BME280;56261;51.580;4.578;2023-06-01T08:58:22;102464.53;;;19.18;100.00
69153;BME280;56261;51.580;4.578;2023-06-01T09:00:49;102475.34;;;18.28;100.00
69153;BME280;56261;51.580;4.578;2023-06-01T09:03:15;102458.84;;;18.60;100.00
69153;BME280;56261;51.580;4.578;2023-06-01T09:05:40;102458.53;;;18.93;100.00
69153;BME280;56261;51.580;4.578;2023-06-01T09:08:06;102456.94;;;18.84;100.00
69153;BME280;56261;51.580;4.578;2023-06-01T09:10:32;102459.50;;;19.81;100.00
69153;BME280;56261;51.580;4.578;2023-06-01T09:12:58;102467.59;;;18.01;100.00
69153;BME280;56261;51.580;4.578;2023-06-01T09:15:23;102467.53;;;17.78;100.00
69153;BME280;56261;51.580;4.578;2023-06-01T09:17:51;102472.53;;;17.58;100.00
69153;BME280;56261;51.580;4.578;2023-06-01T09:20:27;102464.59;;;17.96;100.00
69153;BME280;56261;51.580;4.578;2023-06-01T09:22:54;102462.13;;;18.10;100.00
69153;BME280;56261;51.580;4.578;2023-06-01T09:25:25;102469.41;;;17.86;100.00
69153;BME280;56261;51.580;4.578;2023-06-01T09:27:52;102460.72;;;18.75;100.00
69153;BME280;56261;51.580;4.578;2023-06-01T09:30:20;102454.47;;;18.59;100.00
69153;BME280;56261;51.580;4.578;2023-06-01T09:32:46;102449.78;;;19.06;100.00
69153;BME280;56261;51.580;4.578;2023-06-01T09:35:44;102442.66;;;20.01;100.00
69153;BME280;56261;51.580;4.578;2023-06-01T09:38:10;102456.19;;;17.91;100.00
69153;BME280;56261;51.580;4.578;2023-06-01T09:40:40;102453.97;;;19.08;100.00
69153;BME280;56261;51.580;4.578;2023-06-01T09:43:21;102440.78;;;19.65;100.00
69153;BME280;56261;51.580;4.578;2023-06-01T09:46:06;102449.63;;;19.22;100.00
69153;BME280;56261;51.580;4.578;2023-06-01T09:48:32;102446.38;;;18.74;100.00
69153;BME280;56261;51.580;4.578;2023-06-01T09:50:57;102420.06;;;19.57;100.00
69153;BME280;56261;51.580;4.578;2023-06-01T09:53:24;102428.94;;;20.09;100.00
69153;BME280;56261;51.580;4.578;2023-06-01T09:56:00;102439.09;;;18.75;100.00
69153;BME280;56261;51.580;4.578;2023-06-01T09:58:27;102438.31;;;19.34;100.00
69153;BME280;56261;51.580;4.578;2023-06-01T10:00:53;102441.38;;;18.86;100.00
69153;BME280;56261;51.580;4.578;2023-06-01T10:03:22;102430.75;;;18.09;100.00
69153;BME280;56261;51.580;4.578;2023-06-01T10:05:48;102434.78;;;18.51;100.00
69153;BME280;56261;51.580;4.578;2023-06-01T10:08:16;102433.38;;;18.93;100.00
69153;BME280;56261;51.580;4.578;2023-06-01T10:10:47;102431.44;;;19.16;100.00
69153;BME280;56261;51.580;4.578;2023-06-01T10:13:13;102435.75;;;18.73;100.00
69153;BME280;56261;51.580;4.578;2023-06-01T10:15:38;102423.47;;;19.00;100.00
69153;BME280;56261;51.580;4.578;2023-06-01T10:18:05;102423.91;;;18.59;100.00
69153;BME280;56261;51.580;4.578;2023-06-01T10:20:35;102420.72;;;18.55;100.00
69153;BME280;56261;51.580;4.578;2023-06-01T10:23:01;102420.47;;;18.27;100.00
69153;BME280;56261;51.580;4.578;2023-06-01T10:25:37;102414.09;;;18.96;100.00
69153;BME280;56261;51.580;4.578;2023-06-01T10:28:06;102423.53;;;18.24;100.00
69153;BME280;56261;51.580;4.578;2023-06-01T10:30:35;102420.97;;;18.08;100.00
69153;BME280;56261;51.580;4.578;2023-06-01T10:33:00;102430.25;;;17.51;100.00
69153;BME280;56261;51.580;4.578;2023-06-01T10:40:33;102418.75;;;18.87;100.00
69153;BME280;56261;51.580;4.578;2023-06-01T10:42:58;102427.69;;;18.87;100.00
69153;BME280;56261;51.580;4.578;2023-06-01T10:45:39;102426.88;;;18.49;100.00
69153;BME280;56261;51.580;4.578;2023-06-01T10:48:06;102424.06;;;18.80;100.00
69153;BME280;56261;51.580;4.578;2023-06-01T10:50:33;102415.38;;;19.15;100.00
69153;BME280;56261;51.580;4.578;2023-06-01T10:53:28;102419.88;;;18.40;100.00
69153;BME280;56261;51.580;4.578;2023-06-01T10:56:26;102417.75;;;18.65;100.00
69153;BME280;56261;51.580;4.578;2023-06-01T11:01:53;102422.25;;;18.35;100.00
69153;BME280;56261;51.580;4.578;2023-06-01T11:04:35;102407.81;;;18.28;100.00
69153;BME280;56261;51.580;4.578;2023-06-01T11:07:37;102416.88;;;19.02;100.00
69153;BME280;56261;51.580;4.578;2023-06-01T11:10:03;102408.78;;;18.87;100.00
69153;BME280;56261;51.580;4.578;2023-06-01T11:15:36;102397.19;;;19.23;100.00
69153;BME280;56261;51.580;4.578;2023-06-01T11:21:10;102392.09;;;19.35;100.00
69153;BME280;56261;51.580;4.578;2023-06-01T11:23:37;102394.72;;;19.80;100.00
69153;BME280;56261;51.580;4.578;2023-06-01T11:26:06;102395.31;;;20.25;100.00
69153;BME280;56261;51.580;4.578;2023-06-01T11:28:33;102391.44;;;19.48;100.00
69153;BME280;56261;51.580;4.578;2023-06-01T11:31:02;102396.28;;;19.53;100.00
69153;BME280;56261;51.580;4.578;2023-06-01T11:33:29;102390.97;;;18.78;100.00
69153;BME280;56261;51.580;4.578;2023-06-01T11:36:00;102388.31;;;19.15;100.00
69153;BME280;56261;51.580;4.578;2023-06-01T11:38:38;102386.34;;;19.75;100.00
69153;BME280;56261;51.580;4.578;2023-06-01T11:41:04;102386.41;;;19.66;100.00
69153;BME280;56261;51.580;4.578;2023-06-01T11:43:30;102390.13;;;19.44;100.00
69153;BME280;56261;51.580;4.578;2023-06-01T11:46:07;102386.16;;;19.76;100.00
69153;BME280;56261;51.580;4.578;2023-06-01T11:48:33;102390.75;;;19.10;100.00
69153;BME280;56261;51.580;4.578;2023-06-01T11:51:04;102388.06;;;19.46;100.00
69153;BME280;56261;51.580;4.578;2023-06-01T11:53:31;102389.22;;;19.37;100.00
69153;BME280;56261;51.580;4.578;2023-06-01T11:55:59;102384.94;;;19.27;100.00
69153;BME280;56261;51.580;4.578;2023-06-01T11:58:26;102381.09;;;19.37;100.00
69153;BME280;56261;51.580;4.578;2023-06-01T12:00:53;102380.41;;;19.86;100.00
69153;BME280;56261;51.580;4.578;2023-06-01T12:03:19;102382.97;;;19.73;100.00
69153;BME280;56261;51.580;4.578;2023-06-01T12:05:45;102381.63;;;19.83;100.00
69153;BME280;56261;51.580;4.578;2023-06-01T12:08:15;102376.88;;;19.85;100.00
69153;BME280;56261;51.580;4.578;2023-06-01T12:10:43;102371.75;;;20.19;100.00
69153;BME280;56261;51.580;4.578;2023-06-01T12:13:10;102384.13;;;20.28;100.00
69153;BME280;56261;51.580;4.578;2023-06-01T12:15:36;102380.16;;;19.66;100.00
69153;BME280;56261;51.580;4.578;2023-06-01T12:18:03;102383.38;;;19.55;100.00
69153;BME280;56261;51.580;4.578;2023-06-01T12:20:32;102381.16;;;19.58;100.00
69153;BME280;56261;51.580;4.578;2023-06-01T12:22:59;102376.16;;;19.77;100.00
69153;BME280;56261;51.580;4.578;2023-06-01T12:25:26;102369.75;;;19.84;100.00
69153;BME280;56261;51.580;4.578;2023-06-01T12:28:08;102375.84;;;20.36;100.00
69153;BME280;56261;51.580;4.578;2023-06-01T12:30:35;102369.94;;;20.89;100.00
69153;BME280;56261;51.580;4.578;2023-06-01T12:33:01;102369.56;;;20.07;100.00
69153;BME280;56261;51.580;4.578;2023-06-01T12:35:29;102372.00;;;20.02;100.00
69153;BME280;56261;51.580;4.578;2023-06-01T12:38:05;102365.66;;;20.45;100.00
69153;BME280;56261;51.580;4.578;2023-06-01T12:40:32;102362.03;;;20.31;100.00
69153;BME280;56261;51.580;4.578;2023-06-01T12:42:58;102360.50;;;20.22;100.00
69153;BME280;56261;51.580;4.578;2023-06-01T12:45:24;102358.31;;;20.32;100.00
69153;BME280;56261;51.580;4.578;2023-06-01T12:47:49;102355.81;;;20.37;100.00
69153;BME280;56261;51.580;4.578;2023-06-01T12:50:15;102358.47;;;20.02;100.00
69153;BME280;56261;51.580;4.578;2023-06-01T12:52:41;102361.03;;;19.67;100.00
69153;BME280;56261;51.580;4.578;2023-06-01T12:55:10;102362.69;;;19.83;100.00
69153;BME280;56261;51.580;4.578;2023-06-01T12:57:36;102366.44;;;20.60;100.00
69153;BME280;56261;51.580;4.578;2023-06-01T13:00:05;102358.09;;;20.05;100.00
69153;BME280;56261;51.580;4.578;2023-06-01T13:02:31;102369.38;;;19.87;100.00
69153;BME280;56261;51.580;4.578;2023-06-01T13:04:58;102363.09;;;20.08;100.00